createdAt,value
2023-01-18T00:08:44.756Z,85.38
2023-01-18T00:18:56.571Z,85.74
2023-01-18T00:29:01.081Z,86.26
2023-01-18T00:39:05.387Z,86.45
2023-01-18T00:49:09.343Z,86.93
2023-01-18T00:59:15.623Z,87.48
2023-01-18T01:09:31.190Z,87.97
2023-01-18T01:19:53.593Z,88.34
2023-01-18T01:30:14.094Z,88.41
2023-01-18T01:40:18.350Z,88.38
2023-01-18T01:50:33.562Z,88.34
2023-01-18T02:00:40.342Z,88.27
2023-01-18T02:11:03.191Z,88.08
2023-01-18T02:21:44.630Z,88.28
2023-01-18T02:32:02.169Z,88.08
2023-01-18T02:43:01.296Z,87.82
2023-01-18T02:53:05.361Z,87.64
2023-01-18T03:03:20.718Z,87.42
2023-01-18T03:13:50.839Z,86.84
2023-01-18T03:23:56.012Z,86.28
2023-01-18T03:34:22.808Z,85.89
2023-01-18T03:44:51.551Z,85.63
2023-01-18T03:55:58.909Z,85.60
2023-01-18T04:06:38.441Z,86.14
2023-01-18T04:16:56.069Z,85.95
2023-01-18T04:27:04.528Z,86.34
2023-01-18T04:37:12.118Z,85.77
2023-01-18T04:47:36.775Z,85.55
2023-01-18T04:58:12.916Z,85.56
2023-01-18T05:08:23.493Z,85.58
2023-01-18T05:18:53.984Z,85.65
2023-01-18T05:29:01.484Z,85.81
2023-01-18T05:39:18.461Z,86.04
2023-01-18T05:49:28.575Z,85.73
2023-01-18T05:59:55.326Z,85.87
2023-01-18T06:10:15.972Z,85.69
2023-01-18T06:20:42.213Z,85.24
2023-01-18T06:31:08.973Z,85.98
2023-01-18T06:41:13.419Z,85.72
2023-01-18T06:51:20.713Z,85.15
2023-01-18T07:01:55.099Z,85.36
2023-01-18T07:12:27.820Z,85.39
2023-01-18T07:22:34.841Z,85.53
2023-01-18T07:33:07.301Z,85.04
2023-01-18T07:43:45.088Z,84.26
2023-01-18T07:54:17.254Z,84.33
2023-01-18T08:04:50.235Z,84.51
2023-01-18T08:15:18.063Z,84.85
2023-01-18T08:25:51.659Z,84.72
2023-01-18T08:36:32.023Z,84.20
2023-01-18T08:46:49.679Z,83.75
2023-01-18T08:56:59.534Z,83.33
2023-01-18T09:07:09.334Z,83.11
2023-01-18T09:17:37.164Z,83.05
2023-01-18T09:27:46.912Z,83.43
2023-01-18T09:37:51.325Z,83.90
2023-01-18T09:48:05.272Z,83.00
2023-01-18T09:58:47.642Z,81.77
2023-01-18T10:09:07.479Z,81.77
2023-01-18T10:19:34.040Z,81.85
2023-01-18T10:29:54.946Z,81.49
2023-01-18T10:40:07.744Z,81.49
2023-01-18T10:50:18.254Z,80.90
2023-01-18T11:00:29.145Z,80.63
2023-01-18T11:10:36.374Z,80.00
2023-01-18T11:21:27.889Z,79.79
2023-01-18T11:31:50.703Z,79.63
2023-01-18T11:42:22.016Z,80.06
2023-01-18T11:52:49.580Z,79.83
2023-01-18T12:03:31.038Z,79.35
2023-01-18T12:14:13.025Z,79.56
2023-01-18T12:24:54.326Z,79.57
2023-01-18T12:35:24.205Z,80.24
2023-01-18T12:45:41.450Z,80.57
2023-01-18T12:55:52.344Z,80.68
2023-01-18T13:06:01.669Z,80.02
2023-01-18T13:16:39.802Z,80.83
2023-01-18T13:26:43.999Z,80.39
2023-01-18T13:36:48.069Z,80.31
2023-01-18T13:46:52.642Z,79.77
2023-01-18T13:57:32.720Z,80.28
2023-01-18T14:08:12.668Z,79.16
2023-01-18T14:18:53.721Z,78.34
2023-01-18T14:29:17.355Z,77.39
2023-01-18T14:39:33.076Z,76.54
2023-01-18T14:50:03.672Z,76.88
2023-01-18T15:00:18.791Z,74.85
2023-01-18T15:10:24.643Z,75.38
2023-01-18T15:20:29.188Z,75.47
2023-01-18T15:30:34.136Z,74.06
2023-01-18T15:41:04.862Z,74.17
2023-01-18T15:51:12.655Z,74.42
2023-01-18T16:01:24.646Z,74.95
2023-01-18T16:11:47.952Z,75.77
2023-01-18T16:21:59.330Z,76.47
2023-01-18T16:32:30.755Z,77.23
2023-01-18T16:43:13.889Z,77.84
2023-01-18T16:53:27.095Z,78.12
2023-01-18T17:03:36.873Z,78.39
2023-01-18T17:13:42.582Z,78.65
2023-01-18T17:23:59.862Z,78.80
2023-01-18T17:34:30.056Z,79.13
2023-01-18T17:44:58.539Z,79.75
2023-01-18T17:55:27.464Z,80.17
2023-01-18T18:06:03.096Z,80.76
2023-01-18T18:16:20.214Z,80.53
2023-01-18T18:26:47.290Z,80.84
2023-01-18T18:36:52.667Z,80.85
2023-01-18T18:46:58.470Z,80.65
2023-01-18T18:57:04.400Z,81.12
2023-01-18T19:07:15.166Z,80.92
2023-01-18T19:17:54.030Z,80.94
2023-01-18T19:28:55.994Z,80.73
2023-01-18T19:39:26.259Z,81.04
2023-01-18T19:49:42.049Z,81.38
2023-01-18T19:59:47.513Z,81.39
2023-01-18T20:10:15.031Z,81.39
2023-01-18T20:20:52.877Z,82.07
2023-01-18T20:31:00.134Z,81.69
2023-01-18T20:41:08.596Z,81.51
2023-01-18T20:51:14.915Z,82.25
2023-01-18T21:01:21.663Z,83.05
2023-01-18T21:12:07.441Z,83.99
2023-01-18T21:22:16.056Z,84.02
2023-01-18T21:33:13.651Z,83.83
2023-01-18T21:43:46.480Z,84.10
2023-01-18T21:54:36.779Z,84.17
2023-01-18T22:05:21.134Z,84.20
2023-01-18T22:16:30.437Z,84.53
2023-01-18T22:27:08.873Z,84.10
2023-01-18T22:38:38.313Z,84.64
2023-01-18T22:49:45.475Z,84.27
2023-01-18T23:00:42.129Z,84.40
2023-01-18T23:11:19.467Z,84.28
2023-01-18T23:22:24.629Z,84.11
2023-01-18T23:32:52.961Z,83.86
2023-01-18T23:43:48.605Z,84.07
2023-01-18T23:54:45.844Z,84.00
